sensor_id;sensor_type;location;lat;lon;timestamp;pressure;altitude;pressure_sealevel;temperature;humidity
15694;BME280;7947;48.834;9.132;2022-08-30T00:00:50;98411.94;;;19.18;75.94
15694;BME280;7947;48.834;9.132;2022-08-30T00:04:06;98395.31;;;19.11;75.90
15694;BME280;7947;48.834;9.132;2022-08-30T00:07:11;98403.81;;;19.10;75.96
15694;BME280;7947;48.834;9.132;2022-08-30T00:10:16;98396.63;;;19.05;76.48
15694;BME280;7947;48.834;9.132;2022-08-30T00:13:22;98398.38;;;19.01;76.72
15694;BME280;7947;48.834;9.132;2022-08-30T00:16:29;98401.28;;;18.96;76.49
15694;BME280;7947;48.834;9.132;2022-08-30T00:19:34;98400.47;;;18.96;76.60
15694;BME280;7947;48.834;9.132;2022-08-30T00:22:40;98409.75;;;18.95;76.94
15694;BME280;7947;48.834;9.132;2022-08-30T00:25:45;98408.00;;;18.90;76.90
15694;BME280;7947;48.834;9.132;2022-08-30T00:28:50;98410.22;;;18.88;77.15
15694;BME280;7947;48.834;9.132;2022-08-30T00:31:56;98413.28;;;18.86;77.26
15694;BME280;7947;48.834;9.132;2022-08-30T00:35:02;98413.91;;;18.83;77.42
15694;BME280;7947;48.834;9.132;2022-08-30T00:38:08;98408.16;;;18.76;77.97
15694;BME280;7947;48.834;9.132;2022-08-30T00:41:14;98412.78;;;18.76;77.79
15694;BME280;7947;48.834;9.132;2022-08-30T00:44:19;98414.41;;;18.77;77.67
15694;BME280;7947;48.834;9.132;2022-08-30T00:47:25;98407.84;;;18.69;78.01
15694;BME280;7947;48.834;9.132;2022-08-30T00:50:34;98413.91;;;18.66;77.84
15694;BME280;7947;48.834;9.132;2022-08-30T00:53:44;98407.84;;;18.69;77.08
15694;BME280;7947;48.834;9.132;2022-08-30T00:56:50;98404.66;;;18.67;76.66
15694;BME280;7947;48.834;9.132;2022-08-30T00:59:56;98412.34;;;18.65;77.02
15694;BME280;7947;48.834;9.132;2022-08-30T01:03:03;98413.75;;;18.63;77.42
15694;BME280;7947;48.834;9.132;2022-08-30T01:06:12;98412.97;;;18.62;77.76
15694;BME280;7947;48.834;9.132;2022-08-30T01:09:18;98416.16;;;18.64;77.92
15694;BME280;7947;48.834;9.132;2022-08-30T01:12:23;98411.03;;;18.63;77.97
15694;BME280;7947;48.834;9.132;2022-08-30T01:15:28;98408.78;;;18.56;78.14
15694;BME280;7947;48.834;9.132;2022-08-30T01:18:36;98412.50;;;18.52;78.37
15694;BME280;7947;48.834;9.132;2022-08-30T01:21:45;98406.72;;;18.45;78.62
15694;BME280;7947;48.834;9.132;2022-08-30T01:24:55;98401.91;;;18.42;78.78
15694;BME280;7947;48.834;9.132;2022-08-30T01:28:05;98416.59;;;18.41;78.60
15694;BME280;7947;48.834;9.132;2022-08-30T01:31:12;98412.44;;;18.35;78.76
15694;BME280;7947;48.834;9.132;2022-08-30T01:34:16;98409.56;;;18.40;77.98
15694;BME280;7947;48.834;9.132;2022-08-30T01:37:25;98410.03;;;18.33;77.74
15694;BME280;7947;48.834;9.132;2022-08-30T01:40:33;98413.88;;;18.32;77.66
15694;BME280;7947;48.834;9.132;2022-08-30T01:43:38;98412.91;;;18.28;77.38
15694;BME280;7947;48.834;9.132;2022-08-30T01:46:45;98417.06;;;18.26;77.82
15694;BME280;7947;48.834;9.132;2022-08-30T01:49:51;98415.16;;;18.26;78.02
15694;BME280;7947;48.834;9.132;2022-08-30T01:52:55;98419.44;;;18.19;78.33
15694;BME280;7947;48.834;9.132;2022-08-30T01:56:02;98421.34;;;18.18;78.38
15694;BME280;7947;48.834;9.132;2022-08-30T01:59:07;98418.00;;;18.13;78.84
15694;BME280;7947;48.834;9.132;2022-08-30T02:02:13;98424.56;;;18.12;78.44
15694;BME280;7947;48.834;9.132;2022-08-30T02:05:18;98417.97;;;18.04;78.93
15694;BME280;7947;48.834;9.132;2022-08-30T02:08:23;98424.84;;;18.01;78.62
15694;BME280;7947;48.834;9.132;2022-08-30T02:11:32;98424.84;;;18.01;78.41
15694;BME280;7947;48.834;9.132;2022-08-30T02:14:37;98424.34;;;17.99;78.82
15694;BME280;7947;48.834;9.132;2022-08-30T02:17:43;98415.25;;;17.95;78.96
15694;BME280;7947;48.834;9.132;2022-08-30T02:20:48;98412.00;;;17.85;79.03
15694;BME280;7947;48.834;9.132;2022-08-30T02:23:53;98404.84;;;17.89;78.79
15694;BME280;7947;48.834;9.132;2022-08-30T02:27:01;98403.25;;;17.88;79.38
15694;BME280;7947;48.834;9.132;2022-08-30T02:30:07;98397.81;;;17.88;79.26
15694;BME280;7947;48.834;9.132;2022-08-30T02:33:13;98403.25;;;17.88;79.71
15694;BME280;7947;48.834;9.132;2022-08-30T02:36:19;98404.34;;;17.87;79.60
15694;BME280;7947;48.834;9.132;2022-08-30T02:39:25;98409.28;;;17.85;79.71
15694;BME280;7947;48.834;9.132;2022-08-30T02:42:33;98402.72;;;17.77;80.61
15694;BME280;7947;48.834;9.132;2022-08-30T02:45:37;98403.06;;;17.76;81.01
15694;BME280;7947;48.834;9.132;2022-08-30T02:48:42;98402.72;;;17.77;81.77
15694;BME280;7947;48.834;9.132;2022-08-30T02:51:48;98406.72;;;17.80;81.50
15694;BME280;7947;48.834;9.132;2022-08-30T02:54:53;98409.78;;;17.78;81.18
15694;BME280;7947;48.834;9.132;2022-08-30T02:58:00;98398.09;;;17.78;81.40
15694;BME280;7947;48.834;9.132;2022-08-30T03:01:05;98400.34;;;17.76;81.44
15694;BME280;7947;48.834;9.132;2022-08-30T03:04:10;98390.91;;;17.73;82.31
15694;BME280;7947;48.834;9.132;2022-08-30T03:07:17;98387.41;;;17.73;82.29
15694;BME280;7947;48.834;9.132;2022-08-30T03:10:22;98379.06;;;17.69;82.40
15694;BME280;7947;48.834;9.132;2022-08-30T03:13:29;98383.91;;;17.72;82.10
15694;BME280;7947;48.834;9.132;2022-08-30T03:16:33;98383.09;;;17.72;81.84
15694;BME280;7947;48.834;9.132;2022-08-30T03:19:39;98379.28;;;17.73;81.82
15694;BME280;7947;48.834;9.132;2022-08-30T03:22:44;98377.19;;;17.70;81.30
15694;BME280;7947;48.834;9.132;2022-08-30T03:25:50;98387.38;;;17.64;81.70
15694;BME280;7947;48.834;9.132;2022-08-30T03:28:56;98378.91;;;17.57;81.99
15694;BME280;7947;48.834;9.132;2022-08-30T03:32:02;98376.34;;;17.61;81.48
15694;BME280;7947;48.834;9.132;2022-08-30T03:35:08;98388.50;;;17.63;81.76
15694;BME280;7947;48.834;9.132;2022-08-30T03:38:13;98384.00;;;17.59;81.82
15694;BME280;7947;48.834;9.132;2022-08-30T03:41:18;98377.94;;;17.53;81.92
15694;BME280;7947;48.834;9.132;2022-08-30T03:44:25;98376.44;;;17.47;81.96
15694;BME280;7947;48.834;9.132;2022-08-30T03:47:31;98374.25;;;17.49;82.14
15694;BME280;7947;48.834;9.132;2022-08-30T03:50:36;98375.34;;;17.48;81.72
15694;BME280;7947;48.834;9.132;2022-08-30T03:53:42;98370.72;;;17.49;81.89
15694;BME280;7947;48.834;9.132;2022-08-30T03:56:49;98374.31;;;17.44;81.95
15694;BME280;7947;48.834;9.132;2022-08-30T03:59:56;98378.78;;;17.40;81.84
15694;BME280;7947;48.834;9.132;2022-08-30T04:03:01;98386.13;;;17.40;82.29
15694;BME280;7947;48.834;9.132;2022-08-30T04:06:06;98382.28;;;17.32;82.15
15694;BME280;7947;48.834;9.132;2022-08-30T04:09:11;98387.69;;;17.32;81.60
15694;BME280;7947;48.834;9.132;2022-08-30T04:12:16;98383.03;;;17.24;82.28
15694;BME280;7947;48.834;9.132;2022-08-30T04:15:25;98376.44;;;17.17;82.10
15694;BME280;7947;48.834;9.132;2022-08-30T04:18:30;98385.19;;;17.13;82.23
15694;BME280;7947;48.834;9.132;2022-08-30T04:21:37;98386.63;;;17.11;82.29
15694;BME280;7947;48.834;9.132;2022-08-30T04:24:44;98392.34;;;17.09;82.36
15694;BME280;7947;48.834;9.132;2022-08-30T04:27:50;98388.34;;;17.07;82.55
15694;BME280;7947;48.834;9.132;2022-08-30T04:30:57;98392.97;;;17.06;82.72
15694;BME280;7947;48.834;9.132;2022-08-30T04:34:03;98387.38;;;17.03;82.24
15694;BME280;7947;48.834;9.132;2022-08-30T04:37:09;98396.41;;;16.98;82.64
15694;BME280;7947;48.834;9.132;2022-08-30T04:40:16;98394.13;;;16.92;82.98
15694;BME280;7947;48.834;9.132;2022-08-30T04:43:24;98399.56;;;16.92;82.95
15694;BME280;7947;48.834;9.132;2022-08-30T04:46:31;98395.88;;;16.88;83.20
15694;BME280;7947;48.834;9.132;2022-08-30T04:49:46;98397.78;;;16.87;83.50
15694;BME280;7947;48.834;9.132;2022-08-30T04:52:50;98404.97;;;16.92;83.71
15694;BME280;7947;48.834;9.132;2022-08-30T04:55:55;98401.50;;;16.91;83.75
15694;BME280;7947;48.834;9.132;2022-08-30T04:59:01;98406.44;;;16.98;83.75
15694;BME280;7947;48.834;9.132;2022-08-30T05:02:10;98418.59;;;17.00;83.96
15694;BME280;7947;48.834;9.132;2022-08-30T05:05:16;98420.38;;;17.05;83.69
15694;BME280;7947;48.834;9.132;2022-08-30T05:08:38;98430.59;;;17.08;83.60
15694;BME280;7947;48.834;9.132;2022-08-30T05:11:51;98436.50;;;17.10;83.41
15694;BME280;7947;48.834;9.132;2022-08-30T05:14:56;98433.78;;;17.10;84.01
15694;BME280;7947;48.834;9.132;2022-08-30T05:18:04;98441.00;;;17.14;85.05
15694;BME280;7947;48.834;9.132;2022-08-30T05:21:17;98438.50;;;17.27;85.75
15694;BME280;7947;48.834;9.132;2022-08-30T05:24:24;98438.41;;;17.32;85.58
15694;BME280;7947;48.834;9.132;2022-08-30T05:27:29;98434.75;;;17.36;85.17
15694;BME280;7947;48.834;9.132;2022-08-30T05:30:38;98436.00;;;17.30;84.88
15694;BME280;7947;48.834;9.132;2022-08-30T05:33:46;98441.53;;;17.25;85.14
15694;BME280;7947;48.834;9.132;2022-08-30T05:36:51;98436.50;;;17.32;85.31
15694;BME280;7947;48.834;9.132;2022-08-30T05:39:56;98424.22;;;17.35;84.40
15694;BME280;7947;48.834;9.132;2022-08-30T05:43:01;98422.78;;;17.37;84.79
15694;BME280;7947;48.834;9.132;2022-08-30T05:46:09;98430.50;;;17.44;85.65
15694;BME280;7947;48.834;9.132;2022-08-30T05:49:16;98437.88;;;17.52;85.81
15694;BME280;7947;48.834;9.132;2022-08-30T05:52:21;98426.47;;;17.63;85.68
15694;BME280;7947;48.834;9.132;2022-08-30T05:55:26;98421.72;;;17.77;85.01
15694;BME280;7947;48.834;9.132;2022-08-30T05:58:33;98416.81;;;17.88;85.22
15694;BME280;7947;48.834;9.132;2022-08-30T06:01:40;98421.81;;;18.03;85.14
15694;BME280;7947;48.834;9.132;2022-08-30T06:04:46;98430.63;;;18.17;85.04
15694;BME280;7947;48.834;9.132;2022-08-30T06:07:54;98428.41;;;18.36;84.93
15694;BME280;7947;48.834;9.132;2022-08-30T06:10:59;98435.81;;;18.53;85.24
15694;BME280;7947;48.834;9.132;2022-08-30T06:14:04;98443.34;;;18.73;84.56
15694;BME280;7947;48.834;9.132;2022-08-30T06:17:09;98437.72;;;18.95;81.58
15694;BME280;7947;48.834;9.132;2022-08-30T06:20:16;98438.69;;;19.08;80.48
15694;BME280;7947;48.834;9.132;2022-08-30T06:23:22;98439.31;;;19.22;79.63
15694;BME280;7947;48.834;9.132;2022-08-30T06:26:28;98434.34;;;19.32;79.54
15694;BME280;7947;48.834;9.132;2022-08-30T06:29:34;98432.41;;;19.41;79.72
15694;BME280;7947;48.834;9.132;2022-08-30T06:32:39;98434.75;;;19.51;79.48
15694;BME280;7947;48.834;9.132;2022-08-30T06:35:46;98430.41;;;19.59;79.65
15694;BME280;7947;48.834;9.132;2022-08-30T06:39:01;98430.09;;;19.60;78.91
15694;BME280;7947;48.834;9.132;2022-08-30T06:42:06;98419.97;;;19.69;78.44
15694;BME280;7947;48.834;9.132;2022-08-30T06:45:11;98429.84;;;19.83;78.82
15694;BME280;7947;48.834;9.132;2022-08-30T06:48:17;98429.72;;;20.08;76.73
15694;BME280;7947;48.834;9.132;2022-08-30T06:51:26;98426.28;;;20.49;74.75
15694;BME280;7947;48.834;9.132;2022-08-30T06:54:32;98425.25;;;21.15;72.51
15694;BME280;7947;48.834;9.132;2022-08-30T06:57:36;98422.97;;;21.50;70.43
15694;BME280;7947;48.834;9.132;2022-08-30T07:00:43;98422.25;;;21.41;68.89
15694;BME280;7947;48.834;9.132;2022-08-30T07:03:49;98424.91;;;21.62;68.81
15694;BME280;7947;48.834;9.132;2022-08-30T07:06:56;98425.66;;;21.95;68.57
15694;BME280;7947;48.834;9.132;2022-08-30T07:10:02;98419.50;;;22.22;68.71
15694;BME280;7947;48.834;9.132;2022-08-30T07:13:08;98431.06;;;22.43;67.13
15694;BME280;7947;48.834;9.132;2022-08-30T07:16:14;98417.97;;;22.61;66.52
15694;BME280;7947;48.834;9.132;2022-08-30T07:19:19;98421.00;;;22.71;65.67
15694;BME280;7947;48.834;9.132;2022-08-30T07:22:25;98425.41;;;22.88;65.13
15694;BME280;7947;48.834;9.132;2022-08-30T07:25:31;98422.97;;;22.98;63.93
15694;BME280;7947;48.834;9.132;2022-08-30T07:28:37;98434.47;;;22.92;63.77
15694;BME280;7947;48.834;9.132;2022-08-30T07:31:44;98429.84;;;22.80;63.87
15694;BME280;7947;48.834;9.132;2022-08-30T07:34:51;98423.91;;;22.63;64.06
15694;BME280;7947;48.834;9.132;2022-08-30T07:37:58;98430.81;;;22.48;65.06
15694;BME280;7947;48.834;9.132;2022-08-30T07:41:05;98435.53;;;22.35;65.12
15694;BME280;7947;48.834;9.132;2022-08-30T07:44:11;98439.53;;;22.26;65.58
15694;BME280;7947;48.834;9.132;2022-08-30T07:47:17;98432.81;;;22.23;65.93
15694;BME280;7947;48.834;9.132;2022-08-30T07:50:22;98443.38;;;22.25;66.89
15694;BME280;7947;48.834;9.132;2022-08-30T07:53:29;98431.66;;;22.24;66.48
15694;BME280;7947;48.834;9.132;2022-08-30T07:56:35;98428.13;;;22.36;65.66
15694;BME280;7947;48.834;9.132;2022-08-30T07:59:40;98435.84;;;22.58;62.15
15694;BME280;7947;48.834;9.132;2022-08-30T08:02:45;98429.06;;;22.80;61.83
15694;BME280;7947;48.834;9.132;2022-08-30T08:05:50;98426.59;;;23.02;61.17
15694;BME280;7947;48.834;9.132;2022-08-30T08:08:57;98429.47;;;23.49;61.05
15694;BME280;7947;48.834;9.132;2022-08-30T08:12:05;98425.13;;;23.79;60.47
15694;BME280;7947;48.834;9.132;2022-08-30T08:15:10;98425.59;;;23.81;58.03
15694;BME280;7947;48.834;9.132;2022-08-30T08:18:16;98438.38;;;23.93;57.39
15694;BME280;7947;48.834;9.132;2022-08-30T08:21:22;98434.06;;;23.92;57.37
15694;BME280;7947;48.834;9.132;2022-08-30T08:24:29;98426.47;;;23.70;57.12
15694;BME280;7947;48.834;9.132;2022-08-30T08:27:34;98429.56;;;23.53;58.71
15694;BME280;7947;48.834;9.132;2022-08-30T08:30:40;98433.34;;;23.64;59.74
15694;BME280;7947;48.834;9.132;2022-08-30T08:33:49;98427.88;;;23.95;58.14
15694;BME280;7947;48.834;9.132;2022-08-30T08:36:55;98425.81;;;24.39;57.21
15694;BME280;7947;48.834;9.132;2022-08-30T08:40:02;98424.09;;;24.84;57.02
15694;BME280;7947;48.834;9.132;2022-08-30T08:43:10;98425.31;;;25.25;55.37
15694;BME280;7947;48.834;9.132;2022-08-30T08:46:21;98420.22;;;25.46;53.79
15694;BME280;7947;48.834;9.132;2022-08-30T08:49:27;98417.56;;;25.72;53.36
15694;BME280;7947;48.834;9.132;2022-08-30T08:52:41;98413.88;;;25.87;52.63
15694;BME280;7947;48.834;9.132;2022-08-30T08:56:11;98413.88;;;26.10;52.86
15694;BME280;7947;48.834;9.132;2022-08-30T08:59:17;98412.56;;;26.27;52.64
15694;BME280;7947;48.834;9.132;2022-08-30T09:02:25;98411.38;;;26.54;52.95
15694;BME280;7947;48.834;9.132;2022-08-30T09:05:34;98414.91;;;26.81;52.58
15694;BME280;7947;48.834;9.132;2022-08-30T09:08:41;98413.09;;;26.92;49.07
15694;BME280;7947;48.834;9.132;2022-08-30T09:11:47;98406.19;;;27.08;49.19
15694;BME280;7947;48.834;9.132;2022-08-30T09:14:54;98404.78;;;27.21;48.92
15694;BME280;7947;48.834;9.132;2022-08-30T09:18:05;98393.16;;;27.35;47.82
15694;BME280;7947;48.834;9.132;2022-08-30T09:21:23;98396.44;;;27.51;47.23
15694;BME280;7947;48.834;9.132;2022-08-30T09:24:36;98400.16;;;27.69;46.62
15694;BME280;7947;48.834;9.132;2022-08-30T09:27:43;98388.84;;;27.81;46.26
15694;BME280;7947;48.834;9.132;2022-08-30T09:30:58;98392.44;;;27.85;47.91
15694;BME280;7947;48.834;9.132;2022-08-30T09:34:03;98381.88;;;27.94;46.96
15694;BME280;7947;48.834;9.132;2022-08-30T09:37:23;98376.84;;;28.07;47.42
15694;BME280;7947;48.834;9.132;2022-08-30T09:40:32;98378.88;;;28.13;45.22
15694;BME280;7947;48.834;9.132;2022-08-30T09:43:39;98370.66;;;28.24;45.89
15694;BME280;7947;48.834;9.132;2022-08-30T09:46:44;98368.03;;;28.45;45.90
15694;BME280;7947;48.834;9.132;2022-08-30T09:49:47;98365.69;;;28.50;44.74
15694;BME280;7947;48.834;9.132;2022-08-30T09:52:56;98366.09;;;28.49;43.90
15694;BME280;7947;48.834;9.132;2022-08-30T09:56:05;98365.34;;;28.59;43.16
15694;BME280;7947;48.834;9.132;2022-08-30T09:59:28;98357.84;;;28.56;43.66
15694;BME280;7947;48.834;9.132;2022-08-30T10:02:46;98352.34;;;28.63;43.26
15694;BME280;7947;48.834;9.132;2022-08-30T10:06:03;98348.84;;;28.70;41.85
15694;BME280;7947;48.834;9.132;2022-08-30T10:09:17;98342.97;;;28.82;42.03
15694;BME280;7947;48.834;9.132;2022-08-30T10:12:28;98349.31;;;28.89;41.23
15694;BME280;7947;48.834;9.132;2022-08-30T10:15:38;98342.59;;;28.87;40.72
15694;BME280;7947;48.834;9.132;2022-08-30T10:18:48;98341.03;;;29.00;40.76
15694;BME280;7947;48.834;9.132;2022-08-30T10:21:58;98340.63;;;28.94;41.72
15694;BME280;7947;48.834;9.132;2022-08-30T10:25:08;98341.09;;;29.03;41.37
15694;BME280;7947;48.834;9.132;2022-08-30T10:28:22;98322.56;;;29.21;41.96
15694;BME280;7947;48.834;9.132;2022-08-30T10:31:35;98324.16;;;29.33;42.15
15694;BME280;7947;48.834;9.132;2022-08-30T10:34:44;98316.69;;;29.44;41.17
15694;BME280;7947;48.834;9.132;2022-08-30T10:37:53;98329.31;;;29.49;40.36
15694;BME280;7947;48.834;9.132;2022-08-30T10:41:02;98313.91;;;29.58;41.63
15694;BME280;7947;48.834;9.132;2022-08-30T10:44:17;98321.06;;;29.73;40.93
15694;BME280;7947;48.834;9.132;2022-08-30T10:47:27;98315.53;;;29.80;39.29
15694;BME280;7947;48.834;9.132;2022-08-30T10:50:36;98305.22;;;29.70;41.04
15694;BME280;7947;48.834;9.132;2022-08-30T10:53:43;98306.03;;;29.57;40.19
15694;BME280;7947;48.834;9.132;2022-08-30T10:56:50;98302.47;;;29.70;40.44
15694;BME280;7947;48.834;9.132;2022-08-30T10:59:59;98302.88;;;29.79;41.61
15694;BME280;7947;48.834;9.132;2022-08-30T11:06:53;98294.94;;;29.64;38.82
15694;BME280;7947;48.834;9.132;2022-08-30T11:10:13;98292.59;;;29.59;38.93
15694;BME280;7947;48.834;9.132;2022-08-30T11:13:22;98296.94;;;29.70;37.75
15694;BME280;7947;48.834;9.132;2022-08-30T11:16:34;98297.31;;;29.93;38.34
15694;BME280;7947;48.834;9.132;2022-08-30T11:19:38;98294.91;;;30.02;37.58
15694;BME280;7947;48.834;9.132;2022-08-30T11:23:13;98289.41;;;29.99;38.77
15694;BME280;7947;48.834;9.132;2022-08-30T11:26:56;98284.63;;;30.06;39.37
15694;BME280;7947;48.834;9.132;2022-08-30T11:33:45;98299.69;;;29.70;36.45
15694;BME280;7947;48.834;9.132;2022-08-30T11:37:06;98295.38;;;29.55;37.01
15694;BME280;7947;48.834;9.132;2022-08-30T11:43:51;98297.34;;;29.44;38.49
15694;BME280;7947;48.834;9.132;2022-08-30T11:46:57;98297.34;;;29.33;37.82
15694;BME280;7947;48.834;9.132;2022-08-30T11:50:06;98300.91;;;29.30;38.56
15694;BME280;7947;48.834;9.132;2022-08-30T11:53:18;98295.75;;;29.15;38.43
15694;BME280;7947;48.834;9.132;2022-08-30T11:56:27;98293.31;;;29.03;39.02
15694;BME280;7947;48.834;9.132;2022-08-30T11:59:42;98298.44;;;28.94;39.42
15694;BME280;7947;48.834;9.132;2022-08-30T12:02:53;98284.25;;;28.92;39.67
15694;BME280;7947;48.834;9.132;2022-08-30T12:06:00;98283.03;;;28.93;39.98
15694;BME280;7947;48.834;9.132;2022-08-30T12:09:05;98285.44;;;29.01;39.48
15694;BME280;7947;48.834;9.132;2022-08-30T12:12:11;98277.91;;;28.98;39.81
15694;BME280;7947;48.834;9.132;2022-08-30T12:15:59;98280.31;;;29.03;39.63
15694;BME280;7947;48.834;9.132;2022-08-30T12:19:13;98275.16;;;28.91;39.73
15694;BME280;7947;48.834;9.132;2022-08-30T12:22:19;98274.34;;;28.94;40.90
15694;BME280;7947;48.834;9.132;2022-08-30T12:25:28;98283.81;;;28.86;39.45
15694;BME280;7947;48.834;9.132;2022-08-30T12:28:31;98272.75;;;28.76;40.40
15694;BME280;7947;48.834;9.132;2022-08-30T12:31:40;98269.19;;;28.72;39.21
15694;BME280;7947;48.834;9.132;2022-08-30T12:34:50;98270.34;;;28.67;39.38
15694;BME280;7947;48.834;9.132;2022-08-30T12:37:57;98270.34;;;28.67;40.62
15694;BME280;7947;48.834;9.132;2022-08-30T12:41:00;98269.59;;;28.74;40.46
15694;BME280;7947;48.834;9.132;2022-08-30T12:44:09;98268.03;;;28.83;40.57
15694;BME280;7947;48.834;9.132;2022-08-30T12:47:17;98261.78;;;29.07;40.57
15694;BME280;7947;48.834;9.132;2022-08-30T12:50:23;98268.50;;;29.31;37.96
15694;BME280;7947;48.834;9.132;2022-08-30T12:53:29;98266.16;;;29.47;38.05
15694;BME280;7947;48.834;9.132;2022-08-30T12:56:59;98257.44;;;29.59;38.81
15694;BME280;7947;48.834;9.132;2022-08-30T13:00:24;98253.50;;;29.67;38.11
15694;BME280;7947;48.834;9.132;2022-08-30T13:03:34;98255.47;;;29.63;38.74
15694;BME280;7947;48.834;9.132;2022-08-30T13:06:41;98249.56;;;29.44;37.80
15694;BME280;7947;48.834;9.132;2022-08-30T13:09:44;98244.03;;;29.47;38.96
15694;BME280;7947;48.834;9.132;2022-08-30T13:13:01;98232.59;;;29.56;37.76
15694;BME280;7947;48.834;9.132;2022-08-30T13:16:20;98231.38;;;29.57;37.97
15694;BME280;7947;48.834;9.132;2022-08-30T13:19:31;98228.63;;;29.74;38.22
15694;BME280;7947;48.834;9.132;2022-08-30T13:22:36;98219.50;;;29.88;37.95
15694;BME280;7947;48.834;9.132;2022-08-30T13:25:39;98211.56;;;30.04;36.56
15694;BME280;7947;48.834;9.132;2022-08-30T13:28:44;98217.81;;;30.15;36.54
15694;BME280;7947;48.834;9.132;2022-08-30T13:31:49;98203.16;;;30.29;36.24
15694;BME280;7947;48.834;9.132;2022-08-30T13:34:53;98200.00;;;30.26;36.35
15694;BME280;7947;48.834;9.132;2022-08-30T13:37:57;98200.03;;;30.19;36.46
15694;BME280;7947;48.834;9.132;2022-08-30T13:41:01;98196.47;;;30.19;35.94
15694;BME280;7947;48.834;9.132;2022-08-30T13:44:04;98204.06;;;29.97;36.26
15694;BME280;7947;48.834;9.132;2022-08-30T13:47:13;98200.19;;;29.63;37.43
15694;BME280;7947;48.834;9.132;2022-08-30T13:50:35;98201.41;;;29.34;37.62
15694;BME280;7947;48.834;9.132;2022-08-30T13:53:38;98187.22;;;29.18;38.30
15694;BME280;7947;48.834;9.132;2022-08-30T13:56:57;98189.13;;;29.00;39.81
15694;BME280;7947;48.834;9.132;2022-08-30T14:00:03;98178.91;;;28.90;39.82
15694;BME280;7947;48.834;9.132;2022-08-30T14:03:06;98175.72;;;28.77;38.63
15694;BME280;7947;48.834;9.132;2022-08-30T14:06:10;98173.00;;;28.88;39.47
15694;BME280;7947;48.834;9.132;2022-08-30T14:09:33;98174.97;;;29.01;39.41
15694;BME280;7947;48.834;9.132;2022-08-30T14:12:36;98163.91;;;29.26;38.81
15694;BME280;7947;48.834;9.132;2022-08-30T14:15:56;98149.63;;;29.52;37.65
15694;BME280;7947;48.834;9.132;2022-08-30T14:19:21;98153.56;;;29.76;39.14
15694;BME280;7947;48.834;9.132;2022-08-30T14:22:26;98151.88;;;30.03;37.08
15694;BME280;7947;48.834;9.132;2022-08-30T14:25:29;98152.91;;;30.34;37.08
15694;BME280;7947;48.834;9.132;2022-08-30T14:28:32;98156.41;;;30.48;36.12
15694;BME280;7947;48.834;9.132;2022-08-30T14:31:37;98148.50;;;30.47;35.33
15694;BME280;7947;48.834;9.132;2022-08-30T14:34:40;98145.22;;;30.66;35.95
15694;BME280;7947;48.834;9.132;2022-08-30T14:37:44;98141.13;;;30.84;35.20
15694;BME280;7947;48.834;9.132;2022-08-30T14:40:47;98147.84;;;30.87;35.20
15694;BME280;7947;48.834;9.132;2022-08-30T14:43:50;98142.84;;;30.61;34.83
15694;BME280;7947;48.834;9.132;2022-08-30T14:46:53;98136.97;;;30.55;36.38
15694;BME280;7947;48.834;9.132;2022-08-30T14:49:57;98146.47;;;30.54;35.33
15694;BME280;7947;48.834;9.132;2022-08-30T14:53:03;98148.44;;;30.54;36.08
15694;BME280;7947;48.834;9.132;2022-08-30T14:56:07;98140.59;;;30.49;35.70
15694;BME280;7947;48.834;9.132;2022-08-30T14:59:10;98142.25;;;30.32;35.55
15694;BME280;7947;48.834;9.132;2022-08-30T15:02:13;98134.06;;;30.07;36.63
15694;BME280;7947;48.834;9.132;2022-08-30T15:05:17;98145.16;;;29.97;37.39
15694;BME280;7947;48.834;9.132;2022-08-30T15:08:21;98134.47;;;30.02;36.54
15694;BME280;7947;48.834;9.132;2022-08-30T15:11:26;98134.84;;;30.04;36.63
15694;BME280;7947;48.834;9.132;2022-08-30T15:14:30;98132.13;;;29.97;37.68
15694;BME280;7947;48.834;9.132;2022-08-30T15:17:33;98144.91;;;29.60;37.66
15694;BME280;7947;48.834;9.132;2022-08-30T15:20:36;98131.94;;;29.32;37.88
15694;BME280;7947;48.834;9.132;2022-08-30T15:23:47;98134.28;;;29.33;38.98
15694;BME280;7947;48.834;9.132;2022-08-30T15:26:52;98130.72;;;29.36;38.61
15694;BME280;7947;48.834;9.132;2022-08-30T15:29:55;98132.69;;;29.54;37.15
15694;BME280;7947;48.834;9.132;2022-08-30T15:32:58;98137.00;;;29.65;37.46
15694;BME280;7947;48.834;9.132;2022-08-30T15:36:01;98131.03;;;29.77;36.44
15694;BME280;7947;48.834;9.132;2022-08-30T15:39:07;98131.47;;;29.55;37.26
15694;BME280;7947;48.834;9.132;2022-08-30T15:42:10;98135.47;;;29.39;37.81
15694;BME280;7947;48.834;9.132;2022-08-30T15:45:19;98130.00;;;29.15;37.97
15694;BME280;7947;48.834;9.132;2022-08-30T15:48:23;98127.22;;;28.87;39.29
15694;BME280;7947;48.834;9.132;2022-08-30T15:51:26;98129.59;;;28.78;39.75
15694;BME280;7947;48.834;9.132;2022-08-30T15:54:32;98122.88;;;28.89;40.57
15694;BME280;7947;48.834;9.132;2022-08-30T15:57:35;98122.09;;;28.99;38.81
15694;BME280;7947;48.834;9.132;2022-08-30T16:00:38;98117.38;;;28.86;38.35
15694;BME280;7947;48.834;9.132;2022-08-30T16:03:45;98114.59;;;28.68;39.45
15694;BME280;7947;48.834;9.132;2022-08-30T16:06:49;98115.00;;;28.67;38.75
15694;BME280;7947;48.834;9.132;2022-08-30T16:09:54;98106.31;;;28.72;38.83
15694;BME280;7947;48.834;9.132;2022-08-30T16:12:57;98108.31;;;28.78;40.06
15694;BME280;7947;48.834;9.132;2022-08-30T16:16:05;98104.34;;;28.72;39.10
15694;BME280;7947;48.834;9.132;2022-08-30T16:19:08;98102.38;;;28.59;39.08
15694;BME280;7947;48.834;9.132;2022-08-30T16:22:11;98105.09;;;28.44;40.25
15694;BME280;7947;48.834;9.132;2022-08-30T16:25:24;98106.66;;;28.35;40.77
15694;BME280;7947;48.834;9.132;2022-08-30T16:28:41;98106.25;;;28.36;40.07
15694;BME280;7947;48.834;9.132;2022-08-30T16:31:44;98105.47;;;28.36;40.20
15694;BME280;7947;48.834;9.132;2022-08-30T16:34:48;98109.41;;;28.35;40.08
15694;BME280;7947;48.834;9.132;2022-08-30T16:37:50;98102.69;;;28.18;41.13
15694;BME280;7947;48.834;9.132;2022-08-30T16:40:54;98094.03;;;28.16;40.55
15694;BME280;7947;48.834;9.132;2022-08-30T16:43:57;98095.94;;;27.98;41.58
15694;BME280;7947;48.834;9.132;2022-08-30T16:47:00;98095.06;;;27.84;41.07
15694;BME280;7947;48.834;9.132;2022-08-30T16:50:04;98093.88;;;27.78;41.13
15694;BME280;7947;48.834;9.132;2022-08-30T16:53:07;98091.81;;;27.57;41.64
15694;BME280;7947;48.834;9.132;2022-08-30T16:56:14;98094.88;;;27.41;41.46